Time;durP1;ratioP1;P1;durP2;ratioP2;P2;SDS_P1;SDS_P2;PMS_P1;PMS_P2;Temp;Humidity;BMP_temperature;BMP_pressure;BME280_temperature;BME280_humidity;BME280_pressure;Samples;Min_cycle;Max_cycle;Signal;HPM_P1;HPM_P2
2023/06/05 00:00:06;;;;;;;0.80;0.80;;;19.70;46.90;;;;;;5108841;28;20188;-79
2023/06/05 00:02:32;;;;;;;1.70;0.80;;;19.80;46.90;;;;;;5108243;28;20214;-78
2023/06/05 00:04:58;;;;;;;0.60;0.60;;;19.80;46.90;;;;;;5108912;28;20159;-78
2023/06/05 00:07:24;;;;;;;0.82;0.70;;;19.80;46.90;;;;;;5126815;28;20148;-79
2023/06/05 00:09:52;;;;;;;0.60;0.60;;;19.90;46.90;;;;;;5091214;28;20196;-78
2023/06/05 00:12:18;;;;;;;0.60;0.57;;;19.80;46.80;;;;;;5109222;28;20157;-78
2023/06/05 00:14:45;;;;;;;1.80;0.80;;;19.80;46.90;;;;;;5108853;28;20160;-79
2023/06/05 00:17:11;;;;;;;0.75;0.60;;;19.80;46.90;;;;;;5108159;28;20206;-78
2023/06/05 00:19:37;;;;;;;1.15;0.80;;;19.80;46.90;;;;;;5126783;28;20276;-79
2023/06/05 00:22:03;;;;;;;0.90;0.80;;;19.80;46.90;;;;;;5108445;28;20156;-79
2023/06/05 00:24:33;;;;;;;0.70;0.70;;;19.80;46.90;;;;;;5108396;28;20251;-78
2023/06/05 00:26:59;;;;;;;0.50;0.50;;;19.80;46.90;;;;;;5092066;28;20175;-79
2023/06/05 00:29:27;;;;;;;0.63;0.63;;;19.80;46.90;;;;;;5091226;28;20171;-78
2023/06/05 00:31:54;;;;;;;1.02;0.70;;;19.80;46.90;;;;;;5108259;28;20152;-79
2023/06/05 00:34:19;;;;;;;0.60;0.60;;;19.80;46.90;;;;;;5091395;28;20243;-78
2023/06/05 00:36:50;;;;;;;0.70;0.60;;;19.80;46.90;;;;;;5109061;28;20664;-78
2023/06/05 00:39:18;;;;;;;0.75;0.70;;;19.80;46.90;;;;;;5091407;28;20247;-78
2023/06/05 00:41:45;;;;;;;0.50;0.50;;;19.80;46.90;;;;;;5108920;28;20149;-79
2023/06/05 00:44:11;;;;;;;0.80;0.80;;;19.80;46.90;;;;;;5108926;28;20159;-78
2023/06/05 00:46:37;;;;;;;0.70;0.70;;;19.80;46.90;;;;;;5094558;28;20168;-79
2023/06/05 00:49:03;;;;;;;1.40;0.75;;;19.80;46.90;;;;;;5094833;28;20163;-78
2023/06/05 00:51:30;;;;;;;0.65;0.65;;;19.80;46.90;;;;;;5094246;28;20156;-78
2023/06/05 00:53:56;;;;;;;1.63;0.70;;;19.80;46.90;;;;;;5112249;28;20152;-79
2023/06/05 00:56:28;;;;;;;0.60;0.60;;;19.80;46.90;;;;;;5112122;28;20160;-78
2023/06/05 00:58:58;;;;;;;0.50;0.50;;;19.70;46.80;;;;;;5094863;28;20180;-78
2023/06/05 01:01:24;;;;;;;0.70;0.63;;;19.80;46.90;;;;;;5093915;28;20159;-78
2023/06/05 01:03:50;;;;;;;0.63;0.63;;;19.80;46.90;;;;;;5094924;28;20198;-78
2023/06/05 01:06:23;;;;;;;0.57;0.57;;;19.70;46.80;;;;;;5094968;28;20159;-78
2023/06/05 01:08:50;;;;;;;0.63;0.60;;;19.70;46.90;;;;;;5129218;28;20163;-78
2023/06/05 01:11:22;;;;;;;0.55;0.55;;;19.80;46.90;;;;;;5094444;28;20235;-78
2023/06/05 01:14:09;;;;;;;0.57;0.57;;;19.80;46.90;;;;;;5095417;28;20633;-78
2023/06/05 01:16:36;;;;;;;0.60;0.55;;;19.80;46.80;;;;;;5111151;28;20262;-78
2023/06/05 01:19:02;;;;;;;0.60;0.60;;;19.80;46.90;;;;;;5093972;28;20199;-78
2023/06/05 01:21:31;;;;;;;0.70;0.70;;;19.80;46.90;;;;;;5094702;28;20250;-78
2023/06/05 01:23:57;;;;;;;0.73;0.60;;;19.70;46.90;;;;;;5094550;28;20157;-79
2023/06/05 01:26:28;;;;;;;0.70;0.70;;;19.70;46.90;;;;;;5078050;28;20165;-78
2023/06/05 01:28:54;;;;;;;0.50;0.50;;;19.70;46.90;;;;;;5129423;28;20183;-78
2023/06/05 01:31:21;;;;;;;0.70;0.70;;;19.70;46.90;;;;;;5094000;28;20161;-78
2023/06/05 01:33:52;;;;;;;0.73;0.65;;;19.70;46.90;;;;;;5119092;27;20222;-78
2023/06/05 01:36:21;;;;;;;1.05;0.77;;;19.70;46.80;;;;;;5131797;27;20664;-79
2023/06/05 01:38:46;;;;;;;1.15;0.65;;;19.70;46.90;;;;;;5114779;27;20198;-79
2023/06/05 01:41:12;;;;;;;1.00;0.80;;;19.70;46.80;;;;;;5113583;27;20166;-78
2023/06/05 01:43:38;;;;;;;0.80;0.73;;;19.80;46.80;;;;;;5114526;27;20170;-78
2023/06/05 01:46:07;;;;;;;0.60;0.60;;;19.70;46.80;;;;;;5131894;27;20180;-79
2023/06/05 01:48:33;;;;;;;0.70;0.70;;;19.70;46.80;;;;;;5114032;27;20518;-78
2023/06/05 01:51:00;;;;;;;0.70;0.65;;;19.70;46.90;;;;;;5131564;27;20523;-78
2023/06/05 01:53:27;;;;;;;1.05;0.68;;;19.70;46.90;;;;;;5114261;27;20164;-78
2023/06/05 01:55:59;;;;;;;0.50;0.50;;;19.70;46.80;;;;;;5130433;27;20170;-79
2023/06/05 01:58:26;;;;;;;0.65;0.60;;;19.70;46.90;;;;;;5115003;27;20170;-79
2023/06/05 02:00:53;;;;;;;0.70;0.70;;;19.70;46.80;;;;;;5131734;27;20151;-79
2023/06/05 02:03:23;;;;;;;1.10;0.70;;;19.70;46.80;;;;;;5114469;27;20186;-78
2023/06/05 02:05:49;;;;;;;0.60;0.60;;;19.70;46.80;;;;;;5131147;27;20155;-78
2023/06/05 02:08:19;;;;;;;0.75;0.60;;;19.80;46.90;;;;;;5130715;27;20147;-79
2023/06/05 02:10:46;;;;;;;0.82;0.60;;;19.70;46.90;;;;;;5149421;27;20151;-78
2023/06/05 02:13:12;;;;;;;0.50;0.50;;;19.70;46.90;;;;;;5130747;27;20156;-78
2023/06/05 02:15:38;;;;;;;0.70;0.70;;;19.70;46.90;;;;;;5131203;27;20212;-78
2023/06/05 02:18:04;;;;;;;0.73;0.60;;;19.70;46.90;;;;;;5148317;27;20572;-79
2023/06/05 02:20:32;;;;;;;0.63;0.60;;;19.70;46.90;;;;;;5149579;27;20183;-79
2023/06/05 02:22:58;;;;;;;0.55;0.55;;;19.70;46.90;;;;;;5130503;27;20163;-79
2023/06/05 02:25:28;;;;;;;0.65;0.65;;;19.80;46.90;;;;;;5130623;27;20144;-78
2023/06/05 02:27:54;;;;;;;0.70;0.70;;;19.70;46.90;;;;;;5114072;27;20247;-79
2023/06/05 02:30:20;;;;;;;0.70;0.70;;;19.70;46.90;;;;;;5112986;27;20185;-78
2023/06/05 02:32:48;;;;;;;0.65;0.65;;;19.70;46.90;;;;;;5113588;27;20171;-79
2023/06/05 02:35:14;;;;;;;0.63;0.63;;;19.70;46.90;;;;;;5093048;28;20257;-78
2023/06/05 02:37:43;;;;;;;0.65;0.60;;;19.70;46.90;;;;;;5109313;28;20167;-78
2023/06/05 02:40:11;;;;;;;0.70;0.60;;;19.70;46.90;;;;;;5094568;28;20186;-79
2023/06/05 02:42:37;;;;;;;0.60;0.60;;;19.70;46.90;;;;;;5093420;28;20242;-79
2023/06/05 02:45:03;;;;;;;0.57;0.55;;;19.70;46.90;;;;;;5081380;28;20207;-82
2023/06/05 02:47:29;;;;;;;0.52;0.52;;;19.70;46.90;;;;;;5097728;28;20152;-82
2023/06/05 02:49:56;;;;;;;0.60;0.60;;;19.70;46.90;;;;;;5097207;28;20179;-82
2023/06/05 02:52:22;;;;;;;0.70;0.60;;;19.70;46.90;;;;;;5097380;28;20682;-81
2023/06/05 02:54:48;;;;;;;0.60;0.47;;;19.70;47.00;;;;;;5097398;28;20247;-82
2023/06/05 02:57:15;;;;;;;0.95;0.70;;;19.70;47.60;;;;;;5080718;28;20175;-80
2023/06/05 02:59:41;;;;;;;0.60;0.50;;;19.70;46.90;;;;;;5098207;28;20180;-81
2023/06/05 03:02:07;;;;;;;0.57;0.50;;;19.70;47.00;;;;;;5097678;28;20155;-81
2023/06/05 03:04:32;;;;;;;0.60;0.60;;;19.70;47.00;;;;;;5098020;28;20198;-80
2023/06/05 03:06:59;;;;;;;0.60;0.60;;;19.70;46.90;;;;;;5114500;28;20156;-80
2023/06/05 03:09:25;;;;;;;0.75;0.70;;;19.70;47.00;;;;;;5080295;28;20614;-82
2023/06/05 03:11:52;;;;;;;0.70;0.65;;;19.70;47.00;;;;;;5115019;28;20656;-81
2023/06/05 03:14:17;;;;;;;0.60;0.60;;;19.70;46.90;;;;;;5096851;28;20179;-81
2023/06/05 03:16:43;;;;;;;0.50;0.50;;;19.70;46.90;;;;;;5115296;28;20156;-81
2023/06/05 03:19:10;;;;;;;0.70;0.68;;;19.70;46.90;;;;;;5096794;28;20192;-82
2023/06/05 03:21:37;;;;;;;0.60;0.60;;;19.70;46.90;;;;;;5080714;28;20148;-81
2023/06/05 03:24:05;;;;;;;0.52;0.50;;;19.70;46.90;;;;;;5080325;28;20159;-81
2023/06/05 03:26:32;;;;;;;0.60;0.60;;;19.70;46.90;;;;;;5097360;28;20156;-81
2023/06/05 03:28:58;;;;;;;0.50;0.50;;;19.70;46.80;;;;;;5080404;28;20177;-81
2023/06/05 03:31:23;;;;;;;0.75;0.70;;;19.70;46.80;;;;;;5097128;28;20243;-81
2023/06/05 03:33:49;;;;;;;0.55;0.50;;;19.70;46.80;;;;;;5096847;28;20215;-82
2023/06/05 03:36:17;;;;;;;0.85;0.60;;;19.80;46.70;;;;;;5097055;28;20164;-82
2023/06/05 03:38:43;;;;;;;1.10;0.73;;;19.80;47.30;;;;;;5114947;28;20240;-82
2023/06/05 03:41:09;;;;;;;0.60;0.60;;;19.90;46.70;;;;;;5115408;28;20184;-82
2023/06/05 03:43:35;;;;;;;0.65;0.60;;;19.80;46.60;;;;;;5080370;28;20639;-82
2023/06/05 03:46:00;;;;;;;0.55;0.55;;;19.90;46.50;;;;;;5115470;28;20235;-81
2023/06/05 03:48:26;;;;;;;0.60;0.60;;;19.90;46.60;;;;;;5097425;28;20164;-82
2023/06/05 03:50:53;;;;;;;0.77;0.68;;;19.90;46.50;;;;;;5097990;28;20152;-82
2023/06/05 03:53:19;;;;;;;0.57;0.55;;;19.90;46.50;;;;;;5081434;28;20193;-82
2023/06/05 03:55:46;;;;;;;0.52;0.52;;;19.90;46.40;;;;;;5081463;28;20159;-82
2023/06/05 03:58:13;;;;;;;0.80;0.70;;;19.90;46.40;;;;;;5097787;28;20169;-81
2023/06/05 04:00:40;;;;;;;0.50;0.50;;;19.90;46.40;;;;;;5080728;28;20167;-81
2023/06/05 04:03:08;;;;;;;0.75;0.60;;;19.90;46.30;;;;;;5097593;28;20239;-82
2023/06/05 04:05:35;;;;;;;0.80;0.68;;;20.00;46.30;;;;;;5097643;28;20148;-81
2023/06/05 04:08:01;;;;;;;0.70;0.70;;;20.00;46.30;;;;;;5097336;28;20152;-81
2023/06/05 04:10:26;;;;;;;0.70;0.60;;;20.00;46.30;;;;;;5115485;28;20231;-81
2023/06/05 04:12:52;;;;;;;1.02;0.73;;;20.00;46.30;;;;;;5114958;28;20682;-81
2023/06/05 04:15:18;;;;;;;0.60;0.60;;;20.00;46.30;;;;;;5097339;28;20259;-81
2023/06/05 04:17:43;;;;;;;1.25;0.50;;;20.00;46.30;;;;;;5080584;28;20623;-81
2023/06/05 04:20:13;;;;;;;0.60;0.60;;;20.00;46.30;;;;;;5084124;28;20194;-81
2023/06/05 04:22:39;;;;;;;0.70;0.70;;;20.00;46.30;;;;;;5084905;28;20144;-82
2023/06/05 04:25:05;;;;;;;1.27;0.85;;;20.00;46.20;;;;;;5118947;28;20159;-81
2023/06/05 04:27:31;;;;;;;0.80;0.73;;;20.00;46.20;;;;;;5067554;28;20164;-82
2023/06/05 04:29:57;;;;;;;0.75;0.70;;;20.00;46.10;;;;;;5119123;28;20503;-82
2023/06/05 04:32:22;;;;;;;0.60;0.60;;;20.00;46.10;;;;;;5118797;28;20166;-81
2023/06/05 04:34:48;;;;;;;0.52;0.50;;;20.10;46.10;;;;;;5118559;28;20226;-82
2023/06/05 04:37:13;;;;;;;0.60;0.60;;;20.10;46.00;;;;;;5118405;28;20156;-81
2023/06/05 04:39:39;;;;;;;0.60;0.60;;;20.00;45.90;;;;;;5118293;28;20589;-82
2023/06/05 04:42:07;;;;;;;0.70;0.50;;;20.10;46.00;;;;;;5100208;28;20548;-81
2023/06/05 04:44:32;;;;;;;1.10;0.65;;;20.10;46.10;;;;;;5100508;28;20148;-81
2023/06/05 04:46:58;;;;;;;0.55;0.52;;;20.10;46.10;;;;;;5099756;28;20175;-81
2023/06/05 04:49:24;;;;;;;0.65;0.65;;;20.10;46.00;;;;;;5118253;28;20160;-82
2023/06/05 04:51:50;;;;;;;0.60;0.60;;;20.10;45.90;;;;;;5117871;28;20152;-82
2023/06/05 04:54:15;;;;;;;1.00;0.52;;;20.20;45.90;;;;;;5099367;28;20164;-82
2023/06/05 04:56:42;;;;;;;1.25;0.70;;;20.10;45.80;;;;;;5099747;28;20164;-81
2023/06/05 04:59:09;;;;;;;0.75;0.75;;;20.10;45.80;;;;;;5117541;28;20582;-81
2023/06/05 05:01:34;;;;;;;0.57;0.57;;;20.20;45.80;;;;;;5099623;28;20151;-80
2023/06/05 05:04:00;;;;;;;0.68;0.60;;;20.20;45.80;;;;;;5117434;28;20153;-81
2023/06/05 05:06:26;;;;;;;0.50;0.50;;;20.10;45.80;;;;;;5099912;28;20225;-81
2023/06/05 05:08:51;;;;;;;1.27;0.65;;;20.20;45.70;;;;;;5117731;28;20159;-79
2023/06/05 05:11:17;;;;;;;0.50;0.50;;;20.20;45.70;;;;;;5099704;28;20243;-81
2023/06/05 05:13:43;;;;;;;0.65;0.60;;;20.20;45.70;;;;;;5099064;28;20156;-81
2023/06/05 05:16:09;;;;;;;0.50;0.50;;;20.20;45.70;;;;;;5098967;28;20167;-81
2023/06/05 05:18:36;;;;;;;0.65;0.65;;;20.20;45.70;;;;;;5117132;28;20188;-81
2023/06/05 05:21:04;;;;;;;0.68;0.57;;;20.20;45.70;;;;;;5099305;28;20594;-81
2023/06/05 05:23:30;;;;;;;0.60;0.60;;;20.30;45.80;;;;;;5082356;28;20164;-81
2023/06/05 05:25:56;;;;;;;0.63;0.63;;;20.20;45.70;;;;;;5116965;28;20607;-81
2023/06/05 05:28:22;;;;;;;0.55;0.55;;;20.30;45.70;;;;;;5098903;28;20171;-82
2023/06/05 05:30:47;;;;;;;0.55;0.55;;;20.30;45.60;;;;;;5097891;28;20175;-80
2023/06/05 05:33:14;;;;;;;0.63;0.63;;;20.30;45.60;;;;;;5098397;28;20203;-81
2023/06/05 05:35:40;;;;;;;0.80;0.60;;;20.30;45.50;;;;;;5098828;28;20253;-81
2023/06/05 05:38:06;;;;;;;0.52;0.50;;;20.30;45.50;;;;;;5116997;28;20560;-82
2023/06/05 05:40:31;;;;;;;0.63;0.63;;;20.30;45.50;;;;;;5116645;28;20273;-81
2023/06/05 05:42:57;;;;;;;0.55;0.52;;;20.30;45.40;;;;;;5098391;28;20191;-81
2023/06/05 05:45:23;;;;;;;0.93;0.65;;;20.40;45.40;;;;;;5099613;28;20523;-81
2023/06/05 05:47:48;;;;;;;0.60;0.60;;;20.40;45.50;;;;;;5082692;28;20626;-79
2023/06/05 05:50:14;;;;;;;0.65;0.65;;;20.40;45.40;;;;;;5099471;28;20228;-81
2023/06/05 05:52:40;;;;;;;0.55;0.55;;;20.40;45.50;;;;;;5117968;28;20233;-81
2023/06/05 05:55:06;;;;;;;0.60;0.60;;;20.40;45.50;;;;;;5083913;28;20259;-81
2023/06/05 05:57:33;;;;;;;0.70;0.63;;;20.50;45.30;;;;;;5116490;28;20145;-81
2023/06/05 05:59:58;;;;;;;0.93;0.73;;;20.40;45.20;;;;;;5098376;28;20213;-81
2023/06/05 06:02:24;;;;;;;0.85;0.50;;;20.50;45.30;;;;;;5081059;28;20530;-82
2023/06/05 06:04:50;;;;;;;0.93;0.73;;;20.50;45.20;;;;;;5064587;28;20533;-81
2023/06/05 06:07:16;;;;;;;0.63;0.55;;;20.50;45.20;;;;;;5115964;28;20167;-80
2023/06/05 06:09:42;;;;;;;0.60;0.60;;;20.40;45.20;;;;;;5081172;28;20159;-81
2023/06/05 06:12:08;;;;;;;0.60;0.60;;;20.50;45.00;;;;;;5097745;28;20271;-81
2023/06/05 06:14:34;;;;;;;0.98;0.60;;;20.50;45.10;;;;;;5080706;28;20226;-81
2023/06/05 06:17:00;;;;;;;0.50;0.50;;;20.50;45.10;;;;;;5115730;28;20630;-82
2023/06/05 06:19:27;;;;;;;0.52;0.52;;;20.50;45.10;;;;;;5114995;28;20191;-81
2023/06/05 06:21:53;;;;;;;0.88;0.80;;;20.50;45.10;;;;;;5096708;28;20178;-81
2023/06/05 06:24:21;;;;;;;0.52;0.50;;;20.50;45.10;;;;;;5080245;28;20153;-81
2023/06/05 06:26:48;;;;;;;0.50;0.50;;;20.50;45.10;;;;;;5115526;28;20180;-82
2023/06/05 06:29:17;;;;;;;0.50;0.50;;;20.50;45.10;;;;;;5097615;28;20153;-82
2023/06/05 06:31:44;;;;;;;0.60;0.60;;;20.60;45.00;;;;;;5098535;28;20168;-81
2023/06/05 06:34:10;;;;;;;0.55;0.55;;;20.70;45.60;;;;;;5093387;27;20210;-81
2023/06/05 06:36:40;;;;;;;0.90;0.60;;;20.60;44.90;;;;;;5119808;27;20167;-82
2023/06/05 06:39:07;;;;;;;0.63;0.57;;;20.40;45.00;;;;;;5103964;27;20191;-81
2023/06/05 06:41:35;;;;;;;0.50;0.50;;;20.40;45.20;;;;;;5138878;27;20280;-82
2023/06/05 06:44:01;;;;;;;0.47;0.47;;;20.30;45.30;;;;;;5119292;27;20211;-81
2023/06/05 06:46:27;;;;;;;0.82;0.70;;;20.20;45.60;;;;;;5101408;27;20159;-81
2023/06/05 06:48:53;;;;;;;2.45;0.80;;;20.10;45.90;;;;;;5100677;27;20167;-81
2023/06/05 06:51:18;;;;;;;0.55;0.55;;;20.20;46.00;;;;;;5102498;27;20167;-82
2023/06/05 06:53:44;;;;;;;0.90;0.57;;;20.10;46.10;;;;;;5121776;27;20170;-80
2023/06/05 06:56:10;;;;;;;0.60;0.60;;;20.10;46.20;;;;;;5118128;27;20205;-82
2023/06/05 06:58:36;;;;;;;0.80;0.70;;;20.10;46.30;;;;;;5119288;27;20159;-81
2023/06/05 07:01:03;;;;;;;0.60;0.60;;;20.10;46.40;;;;;;5115642;28;20213;-81
2023/06/05 07:03:34;;;;;;;0.90;0.68;;;20.10;46.60;;;;;;5097760;28;20239;-82
2023/06/05 07:06:12;;;;;;;0.50;0.50;;;20.00;46.80;;;;;;5065188;28;20247;-82
2023/06/05 07:08:41;;;;;;;2.47;0.50;;;20.10;46.80;;;;;;5064712;28;20170;-81
2023/06/05 07:11:06;;;;;;;0.90;0.70;;;20.10;46.70;;;;;;5098967;28;20178;-82
2023/06/05 07:13:32;;;;;;;2.08;0.63;;;20.10;46.70;;;;;;5079541;28;20160;-82
2023/06/05 07:15:58;;;;;;;0.70;0.70;;;20.20;46.80;;;;;;5097467;28;20175;-81
2023/06/05 07:18:23;;;;;;;0.73;0.50;;;20.10;46.70;;;;;;5116339;28;20235;-81
2023/06/05 07:20:49;;;;;;;1.33;0.63;;;20.20;46.70;;;;;;5096396;28;20590;-81
2023/06/05 07:23:19;;;;;;;1.88;0.50;;;20.20;46.60;;;;;;5078552;28;20533;-81
2023/06/05 07:25:45;;;;;;;0.80;0.60;;;20.20;46.70;;;;;;5078314;28;20156;-81
2023/06/05 07:28:18;;;;;;;0.85;0.60;;;20.10;46.70;;;;;;5096248;28;20160;-80
2023/06/05 07:30:44;;;;;;;2.30;0.70;;;20.20;46.70;;;;;;5035871;28;20221;-81
2023/06/05 07:33:10;;;;;;;0.65;0.65;;;20.30;46.50;;;;;;5051900;28;20185;-81
2023/06/05 07:35:36;;;;;;;1.02;0.77;;;20.30;46.50;;;;;;5035911;28;20190;-82
2023/06/05 07:38:02;;;;;;;0.95;0.63;;;20.30;46.60;;;;;;5034589;28;20192;-81
2023/06/05 07:40:27;;;;;;;1.33;0.70;;;20.30;46.50;;;;;;5035023;28;20216;-82
2023/06/05 07:42:53;;;;;;;1.13;0.75;;;20.30;46.60;;;;;;5052280;28;20189;-81
2023/06/05 07:45:22;;;;;;;1.67;0.75;;;20.30;46.50;;;;;;5036174;28;20253;-81
2023/06/05 07:47:47;;;;;;;1.30;0.70;;;20.40;46.60;;;;;;5052658;28;20158;-80
2023/06/05 07:50:13;;;;;;;1.20;0.70;;;20.40;46.40;;;;;;5035827;28;20192;-82
2023/06/05 07:52:39;;;;;;;1.65;0.55;;;20.40;46.30;;;;;;5034842;28;20174;-83
2023/06/05 07:55:07;;;;;;;0.50;0.50;;;20.40;46.40;;;;;;5055560;28;20177;-81
2023/06/05 07:57:33;;;;;;;2.25;0.75;;;20.40;46.60;;;;;;5055044;28;20165;-81
2023/06/05 07:59:58;;;;;;;2.00;0.68;;;20.50;46.50;;;;;;5055013;28;20281;-81
2023/06/05 08:02:24;;;;;;;1.10;0.70;;;20.50;46.40;;;;;;5056178;28;20177;-81
2023/06/05 08:04:53;;;;;;;1.50;0.70;;;20.60;46.50;;;;;;5062140;28;20164;-81
2023/06/05 08:07:19;;;;;;;4.05;0.80;;;20.60;46.30;;;;;;5066155;28;20172;-80
2023/06/05 08:09:44;;;;;;;1.00;0.70;;;20.60;46.40;;;;;;5083038;28;20175;-81
2023/06/05 08:12:10;;;;;;;1.15;0.60;;;20.50;46.50;;;;;;5132765;27;20194;-82
2023/06/05 08:14:39;;;;;;;1.83;0.85;;;20.60;46.40;;;;;;5102939;27;20557;-81
2023/06/05 08:17:04;;;;;;;2.00;0.50;;;20.60;46.40;;;;;;5103912;27;20638;-81
2023/06/05 08:19:30;;;;;;;1.88;0.70;;;20.60;46.50;;;;;;5120646;27;20298;-81
2023/06/05 08:21:56;;;;;;;3.70;0.98;;;20.60;46.80;;;;;;5103861;27;20611;-81
2023/06/05 08:24:32;;;;;;;1.33;0.68;;;20.60;46.60;;;;;;5120484;27;20156;-83
2023/06/05 08:27:01;;;;;;;2.25;0.80;;;20.70;46.60;;;;;;5100017;27;20179;-81
2023/06/05 08:29:27;;;;;;;2.03;0.90;;;20.70;46.70;;;;;;5102690;27;20164;-82
2023/06/05 08:31:54;;;;;;;0.80;0.63;;;20.70;46.90;;;;;;5120297;27;20231;-81
2023/06/05 08:34:33;;;;;;;1.77;0.93;;;20.70;47.30;;;;;;5115830;28;20223;-83
2023/06/05 08:37:18;;;;;;;;;;;;;;;;;;;;;
2023/06/05 08:39:46;;;;;;;3.97;1.00;;;20.80;46.80;;;;;;5072558;28;20685;-82
2023/06/05 08:42:32;;;;;;;4.32;1.30;;;20.80;47.20;;;;;;5083882;28;20171;-83
2023/06/05 08:44:58;;;;;;;6.18;1.15;;;20.80;47.30;;;;;;5085615;28;20148;-82
2023/06/05 08:47:37;;;;;;;;;;;;;;;;;;;;;
2023/06/05 08:50:05;;;;;;;2.13;1.10;;;20.80;47.10;;;;;;5068419;28;20621;-83
2023/06/05 08:52:35;;;;;;;3.05;1.00;;;20.70;47.30;;;;;;5117643;28;20239;-84
2023/06/05 08:55:07;;;;;;;3.17;0.82;;;20.80;47.50;;;;;;5067780;28;20225;-81
2023/06/05 08:57:36;;;;;;;3.08;0.90;;;20.90;47.10;;;;;;5066800;28;20546;-80
2023/06/05 09:00:23;;;;;;;2.05;1.00;;;20.80;47.10;;;;;;5082904;28;20198;-81
2023/06/05 09:02:48;;;;;;;2.42;1.02;;;20.80;47.40;;;;;;5118475;28;20610;-82
2023/06/05 09:05:15;;;;;;;2.10;0.90;;;20.80;47.20;;;;;;5081497;28;20163;-82
2023/06/05 09:08:04;;;;;;;4.38;0.68;;;20.80;47.20;;;;;;5099906;28;20153;-82
2023/06/05 09:10:34;;;;;;;1.90;0.85;;;20.80;47.50;;;;;;5117253;28;20156;-83
2023/06/05 09:13:06;;;;;;;2.30;0.80;;;20.80;47.50;;;;;;5085318;28;20251;-81
2023/06/05 09:15:33;;;;;;;2.38;0.70;;;20.80;47.30;;;;;;5099551;28;20152;-82
2023/06/05 09:18:15;;;;;;;2.95;0.98;;;20.80;47.40;;;;;;5100877;28;20156;-83
2023/06/05 09:20:45;;;;;;;2.92;0.63;;;20.80;47.30;;;;;;5099003;28;20184;-81
2023/06/05 09:23:27;;;;;;;2.75;0.93;;;20.80;47.30;;;;;;5085912;28;20152;-82
2023/06/05 09:25:54;;;;;;;2.63;1.25;;;20.90;47.10;;;;;;5083802;28;20183;-81
2023/06/05 09:28:21;;;;;;;1.13;0.85;;;21.00;47.10;;;;;;5085389;28;20148;-81
2023/06/05 09:31:02;;;;;;;3.05;0.90;;;21.10;46.80;;;;;;5119661;28;20575;-81
2023/06/05 09:33:30;;;;;;;1.67;0.65;;;21.20;46.70;;;;;;5098712;28;20163;-81
2023/06/05 09:36:07;;;;;;;1.85;0.75;;;21.10;46.70;;;;;;5067601;28;20157;-80
2023/06/05 09:38:33;;;;;;;2.13;0.80;;;21.10;46.70;;;;;;5064569;28;20522;-82
2023/06/05 09:41:09;;;;;;;1.83;0.80;;;21.10;46.80;;;;;;5063101;28;20676;-81
2023/06/05 09:43:36;;;;;;;2.53;0.80;;;21.10;46.70;;;;;;5081579;28;20148;-82
2023/06/05 09:46:11;;;;;;;1.67;0.80;;;21.10;46.50;;;;;;5081558;28;20695;-81
2023/06/05 09:48:39;;;;;;;2.38;0.75;;;21.00;46.80;;;;;;5050061;28;20179;-82
2023/06/05 09:51:12;;;;;;;0.60;0.60;;;21.10;46.70;;;;;;5064675;28;20169;-82
2023/06/05 09:53:43;;;;;;;1.92;0.77;;;21.20;46.70;;;;;;5079526;28;20215;-82
2023/06/05 09:56:11;;;;;;;2.40;0.90;;;21.20;46.70;;;;;;5063666;28;20160;-83
2023/06/05 09:58:37;;;;;;;2.03;0.75;;;21.10;46.60;;;;;;5063599;28;20204;-82
2023/06/05 10:01:04;;;;;;;1.00;0.80;;;21.20;46.50;;;;;;5063377;28;20189;-82
2023/06/05 10:03:30;;;;;;;2.15;0.70;;;21.20;46.40;;;;;;5097826;28;20149;-81
2023/06/05 10:05:57;;;;;;;2.92;0.90;;;21.20;46.40;;;;;;5099543;28;20175;-85
2023/06/05 10:08:23;;;;;;;1.15;0.90;;;21.30;46.30;;;;;;5061346;28;20144;-85
2023/06/05 10:10:48;;;;;;;0.90;0.68;;;21.30;46.30;;;;;;5078579;28;20226;-80
2023/06/05 10:13:14;;;;;;;1.85;0.77;;;21.20;46.30;;;;;;5061504;28;20193;-79
2023/06/05 10:15:40;;;;;;;1.75;0.82;;;21.20;46.60;;;;;;5061005;28;20650;-83
2023/06/05 10:18:06;;;;;;;2.13;1.20;;;21.20;46.50;;;;;;5059923;28;20255;-82
2023/06/05 10:20:37;;;;;;;2.63;1.02;;;21.30;46.50;;;;;;5113120;28;20413;-81
2023/06/05 10:23:03;;;;;;;0.80;0.80;;;21.20;46.40;;;;;;5097415;28;20175;-83
2023/06/05 10:25:29;;;;;;;1.45;0.80;;;21.20;46.30;;;;;;5114016;28;20168;-83
2023/06/05 10:28:17;;;;;;;2.17;0.80;;;21.20;47.00;;;;;;5079563;28;20616;-82
2023/06/05 10:31:13;;;;;;;1.15;0.88;;;21.20;46.60;;;;;;5114504;28;20546;-82
2023/06/05 10:33:56;;;;;;;0.95;0.82;;;21.20;46.70;;;;;;5101078;28;20199;-82
2023/06/05 10:36:48;;;;;;;1.02;0.90;;;21.20;46.60;;;;;;5115057;28;20633;-81
2023/06/05 10:39:14;;;;;;;2.47;0.80;;;21.20;46.40;;;;;;5096188;28;20180;-80
2023/06/05 10:41:40;;;;;;;1.80;0.82;;;21.20;46.30;;;;;;5079483;28;20160;-84
2023/06/05 10:44:05;;;;;;;1.17;0.80;;;21.30;46.30;;;;;;5096286;28;20164;-84
2023/06/05 10:46:33;;;;;;;0.95;0.85;;;21.30;46.20;;;;;;5096368;28;20221;-83
2023/06/05 10:49:17;;;;;;;1.80;0.70;;;21.30;46.00;;;;;;5099426;28;20610;-84
2023/06/05 10:51:45;;;;;;;1.27;0.75;;;21.40;46.00;;;;;;5082089;28;20156;-83
2023/06/05 10:54:51;;;;;;;0.80;0.80;;;21.30;46.00;;;;;;5097913;28;20153;-82
2023/06/05 10:57:18;;;;;;;1.23;0.90;;;21.30;46.10;;;;;;5084565;28;20247;-83
2023/06/05 10:59:43;;;;;;;1.33;0.80;;;21.20;46.00;;;;;;5114421;28;20195;-83
2023/06/05 11:02:27;;;;;;;0.80;0.75;;;21.20;46.10;;;;;;5096141;28;20535;-83
2023/06/05 11:05:10;;;;;;;1.30;0.80;;;21.10;46.10;;;;;;5095871;28;20156;-82
2023/06/05 11:07:37;;;;;;;0.82;0.82;;;21.10;46.10;;;;;;5115122;28;20148;-81
2023/06/05 11:10:06;;;;;;;2.33;0.90;;;21.20;46.10;;;;;;5081432;28;20197;-84
2023/06/05 11:12:53;;;;;;;2.05;1.10;;;21.20;46.00;;;;;;5097335;28;20172;-84
2023/06/05 11:15:39;;;;;;;0.80;0.70;;;21.20;46.00;;;;;;5101100;28;20156;-84
2023/06/05 11:18:32;;;;;;;1.65;0.88;;;21.20;45.90;;;;;;5087065;28;20239;-82
2023/06/05 11:20:58;;;;;;;0.93;0.90;;;21.20;45.80;;;;;;5117824;28;20154;-83
2023/06/05 11:23:27;;;;;;;1.10;1.00;;;21.30;45.90;;;;;;5117620;28;20155;-82
2023/06/05 11:25:56;;;;;;;1.92;0.95;;;21.30;45.80;;;;;;5084098;28;20140;-84
2023/06/05 11:28:37;;;;;;;1.95;0.80;;;21.30;45.80;;;;;;5082205;28;20534;-85
2023/06/05 11:31:03;;;;;;;0.90;0.80;;;21.40;45.70;;;;;;5101017;28;20148;-83
2023/06/05 11:33:29;;;;;;;0.80;0.80;;;21.40;45.50;;;;;;5084356;28;20174;-82
2023/06/05 11:36:03;;;;;;;0.60;0.60;;;21.40;45.40;;;;;;5068318;28;20578;-81
2023/06/05 11:38:29;;;;;;;1.00;0.75;;;21.40;45.50;;;;;;5068214;28;20182;-80
2023/06/05 11:40:55;;;;;;;0.88;0.75;;;21.40;45.40;;;;;;5119497;28;20300;-81
2023/06/05 11:43:21;;;;;;;1.00;0.90;;;21.40;45.40;;;;;;5101451;28;20184;-80
2023/06/05 11:45:55;;;;;;;1.73;0.90;;;21.40;45.40;;;;;;5084457;28;20596;-81
2023/06/05 11:48:21;;;;;;;2.22;0.88;;;21.40;45.50;;;;;;5067043;28;20268;-82
2023/06/05 11:51:05;;;;;;;1.67;1.05;;;21.40;45.40;;;;;;5098389;28;20148;-81
2023/06/05 11:53:32;;;;;;;0.70;0.70;;;21.40;45.40;;;;;;5102319;28;20244;-80
2023/06/05 11:56:06;;;;;;;0.90;0.90;;;21.50;45.20;;;;;;5069276;28;20160;-84
2023/06/05 11:58:35;;;;;;;0.85;0.77;;;21.50;45.10;;;;;;5103964;28;20158;-82
2023/06/05 12:01:17;;;;;;;1.10;1.00;;;21.40;45.10;;;;;;5120517;28;20153;-80
2023/06/05 12:03:45;;;;;;;0.77;0.75;;;21.40;45.10;;;;;;5121112;28;20148;-79
2023/06/05 12:06:13;;;;;;;1.05;0.95;;;21.50;45.00;;;;;;5085887;28;20213;-80
2023/06/05 12:08:39;;;;;;;1.75;0.77;;;21.50;45.10;;;;;;5084945;28;20202;-81
2023/06/05 12:11:21;;;;;;;0.70;0.70;;;21.50;45.00;;;;;;5084722;28;20155;-80
2023/06/05 12:13:49;;;;;;;1.13;0.90;;;21.50;44.90;;;;;;5067161;28;20168;-80
2023/06/05 12:16:15;;;;;;;1.00;0.88;;;21.50;44.70;;;;;;5083003;28;20642;-81
2023/06/05 12:18:41;;;;;;;1.20;0.80;;;21.70;44.60;;;;;;5082295;28;20262;-82
2023/06/05 12:21:08;;;;;;;1.27;0.90;;;21.80;44.30;;;;;;5099524;28;20175;-80
2023/06/05 12:23:33;;;;;;;1.73;0.85;;;21.90;44.20;;;;;;5082679;28;20149;-85
2023/06/05 12:26:03;;;;;;;0.70;0.70;;;21.90;44.00;;;;;;5082946;28;20224;-81
2023/06/05 12:28:29;;;;;;;0.77;0.77;;;22.00;43.90;;;;;;5068674;28;20168;-80
2023/06/05 12:30:57;;;;;;;1.20;1.10;;;21.90;43.60;;;;;;5085574;28;20164;-80
2023/06/05 12:33:24;;;;;;;1.15;0.88;;;21.80;43.90;;;;;;5086077;28;20225;-80
2023/06/05 12:36:06;;;;;;;1.20;0.98;;;21.70;44.00;;;;;;5068620;28;20180;-85
2023/06/05 12:38:38;;;;;;;0.88;0.80;;;21.70;44.10;;;;;;5083177;28;20195;-82
2023/06/05 12:41:08;;;;;;;0.82;0.77;;;21.70;44.10;;;;;;5086185;28;20152;-82
2023/06/05 12:43:34;;;;;;;1.00;0.80;;;21.70;44.10;;;;;;5090421;28;20235;-82
2023/06/05 12:46:00;;;;;;;0.88;0.80;;;21.70;44.10;;;;;;5106242;28;20148;-84
2023/06/05 12:48:26;;;;;;;0.80;0.77;;;21.70;44.10;;;;;;5106112;28;20148;-81
2023/06/05 12:50:53;;;;;;;0.70;0.70;;;21.70;43.90;;;;;;5104799;28;20247;-84
2023/06/05 12:53:20;;;;;;;1.63;1.10;;;21.70;43.90;;;;;;5086093;28;20248;-81